LAS weather

McCarran International Airport
Las Vegas, Nevada, United States

Public forecast

Using degrees Fahrenheit for public forecast. Weather courtesy of forecast.io.

METAR (pilot weather report)

Retrieved 2017/04/24 08:56 UTC (15 minutes ago):

KLAS 240856Z 21004KT 10SM SCT250 21/M07 A2967

TAF (pilot weather forecast)

Retrieved 2017/04/24 06:24 UTC (3 hours ago):

TAF KLAS 240520Z 2406/2506 20012KT P6SM SCT250 FM241000 21007KT P6SM SCT250 FM241300 VRB05KT P6SM SCT250 FM242000 21010G18KT P6SM BKN150 FM250200 23010KT P6SM BKN150